createdAt,value
2024-05-09T00:00:56.973Z,9.90
2024-05-09T00:03:29.672Z,9.90
2024-05-09T00:06:02.594Z,10.00
2024-05-09T00:08:35.895Z,10.00
2024-05-09T00:11:08.840Z,10.00
2024-05-09T00:13:47.242Z,10.00
2024-05-09T00:16:20.189Z,10.00
2024-05-09T00:18:52.903Z,10.10
2024-05-09T00:21:25.851Z,10.10
2024-05-09T00:23:58.532Z,10.10
2024-05-09T00:26:31.795Z,10.10
2024-05-09T00:29:04.652Z,10.10
2024-05-09T00:31:37.307Z,10.00
2024-05-09T00:34:10.262Z,10.00
2024-05-09T00:36:43.015Z,9.90
2024-05-09T00:39:15.903Z,9.90
2024-05-09T00:41:48.680Z,9.90
2024-05-09T00:44:21.481Z,9.80
2024-05-09T00:46:56.306Z,9.80
2024-05-09T00:49:29.246Z,9.80
2024-05-09T00:52:03.215Z,9.70
2024-05-09T00:54:37.954Z,9.60
2024-05-09T00:57:10.868Z,9.60
2024-05-09T01:02:17.700Z,9.50
2024-05-09T01:04:50.826Z,9.40
2024-05-09T01:07:25.115Z,9.40
2024-05-09T01:09:58.339Z,9.30
2024-05-09T01:12:31.108Z,9.30
2024-05-09T01:15:04.260Z,9.30
2024-05-09T01:17:37.476Z,9.20
2024-05-09T01:20:12.841Z,9.20
2024-05-09T01:22:49.563Z,9.10
2024-05-09T01:25:23.611Z,9.10
2024-05-09T01:27:56.318Z,9.00
2024-05-09T01:30:34.610Z,9.00
2024-05-09T01:33:11.561Z,8.90
2024-05-09T01:35:45.337Z,8.90
2024-05-09T01:38:19.902Z,8.90
2024-05-09T01:40:52.807Z,8.80
2024-05-09T01:43:25.671Z,8.80
2024-05-09T01:45:58.281Z,8.80
2024-05-09T01:48:31.274Z,8.70
2024-05-09T01:51:04.273Z,8.60
2024-05-09T01:53:37.139Z,8.60
2024-05-09T01:56:10.678Z,8.50
2024-05-09T01:58:43.487Z,8.50
2024-05-09T02:01:17.463Z,8.50
2024-05-09T02:03:50.504Z,8.40
2024-05-09T02:06:23.329Z,8.40
2024-05-09T02:08:56.001Z,8.30
2024-05-09T02:11:28.805Z,8.30
2024-05-09T02:14:01.580Z,8.30
2024-05-09T02:16:34.392Z,8.30
2024-05-09T02:19:07.163Z,8.30
2024-05-09T02:21:40.478Z,8.20
2024-05-09T02:24:15.771Z,8.20
2024-05-09T02:26:48.432Z,8.20
2024-05-09T02:29:21.302Z,8.20
2024-05-09T02:31:54.122Z,8.20
2024-05-09T02:34:27.071Z,8.10
2024-05-09T02:37:02.648Z,8.10
2024-05-09T02:39:35.580Z,8.10
2024-05-09T02:42:08.235Z,8.10
2024-05-09T02:44:40.908Z,8.00
2024-05-09T02:47:13.703Z,8.00
2024-05-09T02:49:46.479Z,8.00
2024-05-09T02:52:19.858Z,8.00
2024-05-09T02:54:52.590Z,8.00
2024-05-09T02:57:25.271Z,8.00
2024-05-09T02:59:57.969Z,8.00
2024-05-09T03:02:32.003Z,8.00
2024-05-09T03:05:05.012Z,8.00
2024-05-09T03:07:37.956Z,8.00
2024-05-09T03:10:21.919Z,8.00
2024-05-09T03:12:57.905Z,8.00
2024-05-09T03:15:32.845Z,7.90
2024-05-09T03:18:07.371Z,7.90
2024-05-09T03:20:40.455Z,7.80
2024-05-09T03:23:14.959Z,7.70
2024-05-09T03:25:47.668Z,7.70
2024-05-09T03:28:20.377Z,7.70
2024-05-09T03:30:53.139Z,7.70
2024-05-09T03:33:26.114Z,7.60
2024-05-09T03:35:59.196Z,7.60
2024-05-09T03:38:44.707Z,7.50
2024-05-09T03:41:20.973Z,7.50
2024-05-09T03:43:53.777Z,7.50
2024-05-09T03:46:26.429Z,7.40
2024-05-09T03:48:59.183Z,7.50
2024-05-09T03:51:57.158Z,7.50
2024-05-09T03:54:29.808Z,7.50
2024-05-09T03:57:05.454Z,7.40
2024-05-09T03:59:38.136Z,7.40
2024-05-09T04:02:10.885Z,7.30
2024-05-09T04:04:45.042Z,7.30
2024-05-09T04:07:19.202Z,7.30
2024-05-09T04:09:51.843Z,7.20
2024-05-09T04:12:24.587Z,7.20
2024-05-09T04:14:57.297Z,7.20
2024-05-09T04:17:30.272Z,7.30
2024-05-09T04:20:03.246Z,7.30
2024-05-09T04:22:36.635Z,7.30
2024-05-09T04:25:09.300Z,7.30
2024-05-09T04:27:42.068Z,7.30
2024-05-09T04:30:21.755Z,7.30
2024-05-09T04:33:03.733Z,7.40
2024-05-09T04:35:36.978Z,7.40
2024-05-09T04:38:09.910Z,7.50
2024-05-09T04:40:43.958Z,7.50
2024-05-09T04:43:19.632Z,7.60
2024-05-09T04:45:53.762Z,7.60
2024-05-09T04:48:26.513Z,7.70
2024-05-09T04:50:59.571Z,7.70
2024-05-09T04:53:33.407Z,7.70
2024-05-09T04:56:07.350Z,7.80
2024-05-09T04:58:40.126Z,7.80
2024-05-09T05:01:13.060Z,7.90
2024-05-09T05:03:46.855Z,8.00
2024-05-09T05:06:19.670Z,8.00
2024-05-09T05:08:52.390Z,8.10
2024-05-09T05:11:25.100Z,8.20
2024-05-09T05:13:58.289Z,8.30
2024-05-09T05:16:30.985Z,8.40
2024-05-09T05:19:05.870Z,8.40
2024-05-09T05:21:39.782Z,8.50
2024-05-09T05:24:12.719Z,8.60
2024-05-09T05:26:45.466Z,8.70
2024-05-09T05:29:20.643Z,8.80
2024-05-09T05:31:53.606Z,8.90
2024-05-09T05:34:26.300Z,9.00
2024-05-09T05:36:58.967Z,9.10
2024-05-09T05:39:31.721Z,9.20
2024-05-09T05:42:04.680Z,9.40
2024-05-09T05:44:37.914Z,9.50
2024-05-09T05:47:10.798Z,9.60
2024-05-09T05:49:43.686Z,9.80
2024-05-09T05:52:16.371Z,9.90
2024-05-09T05:54:49.072Z,10.30
2024-05-09T05:57:23.066Z,10.30
2024-05-09T06:02:28.822Z,10.80
2024-05-09T06:05:02.415Z,11.20
2024-05-09T06:07:35.519Z,11.60
2024-05-09T06:10:17.237Z,12.10
2024-05-09T06:12:54.338Z,12.50
2024-05-09T06:15:27.546Z,13.20
2024-05-09T06:18:00.666Z,13.80
2024-05-09T06:20:38.269Z,14.50
2024-05-09T06:23:13.323Z,15.90
2024-05-09T06:25:46.407Z,16.40
2024-05-09T06:28:19.198Z,17.30
2024-05-09T06:30:52.518Z,18.10
2024-05-09T06:33:25.531Z,18.30
2024-05-09T06:35:59.633Z,18.90
2024-05-09T06:38:32.946Z,19.30
2024-05-09T06:41:06.412Z,19.90
2024-05-09T06:43:39.068Z,20.20
2024-05-09T06:46:11.735Z,20.90
2024-05-09T06:48:44.822Z,20.90
2024-05-09T06:51:19.278Z,21.50
2024-05-09T06:53:52.533Z,22.30
2024-05-09T06:56:25.535Z,22.50
2024-05-09T06:58:58.304Z,22.60
2024-05-09T07:01:34.498Z,22.80
2024-05-09T07:04:07.381Z,23.20
2024-05-09T07:06:40.208Z,23.20
2024-05-09T07:09:12.947Z,22.90
2024-05-09T07:11:45.864Z,23.10
2024-05-09T07:14:18.945Z,23.50
2024-05-09T07:16:52.561Z,23.50
2024-05-09T07:19:25.734Z,23.50
2024-05-09T07:21:59.931Z,24.20
2024-05-09T07:27:08.718Z,24.60
2024-05-09T07:29:41.650Z,24.70
2024-05-09T07:32:14.737Z,24.30
2024-05-09T07:34:47.695Z,24.20
2024-05-09T07:37:20.726Z,24.10
2024-05-09T07:39:54.430Z,24.40
2024-05-09T07:42:27.259Z,24.50
2024-05-09T07:45:20.546Z,24.80
2024-05-09T07:49:43.970Z,25.20
2024-05-09T07:53:39.978Z,25.00
2024-05-09T07:56:19.847Z,24.90
2024-05-09T07:58:55.858Z,25.40
2024-05-09T08:01:29.221Z,25.50
2024-05-09T08:04:03.233Z,25.30
2024-05-09T08:06:43.098Z,24.60
2024-05-09T08:09:20.963Z,24.50
2024-05-09T08:11:55.263Z,24.60
2024-05-09T08:14:29.049Z,24.30
2024-05-09T08:17:05.583Z,24.30
2024-05-09T08:19:42.808Z,24.40
2024-05-09T08:22:16.036Z,23.90
2024-05-09T08:24:48.885Z,24.00
2024-05-09T08:27:21.743Z,24.10
2024-05-09T08:29:54.664Z,23.90
2024-05-09T08:32:29.135Z,23.50
2024-05-09T08:35:04.838Z,23.30
2024-05-09T08:37:40.061Z,23.30
2024-05-09T08:40:23.680Z,22.90
2024-05-09T08:43:09.282Z,22.60
2024-05-09T08:45:46.978Z,22.30
2024-05-09T08:48:24.486Z,22.10
2024-05-09T08:50:59.704Z,22.10
2024-05-09T08:53:34.017Z,22.10
2024-05-09T08:56:09.775Z,21.90
2024-05-09T08:58:42.996Z,21.90
2024-05-09T09:04:18.793Z,21.90
2024-05-09T09:06:57.700Z,21.80
2024-05-09T09:09:32.920Z,21.70
2024-05-09T09:12:08.562Z,21.60
2024-05-09T09:14:44.002Z,21.40
2024-05-09T09:17:17.591Z,21.30
2024-05-09T09:19:50.950Z,21.20
2024-05-09T09:22:23.987Z,21.10
2024-05-09T09:24:56.972Z,21.00
2024-05-09T09:27:30.202Z,21.00
2024-05-09T09:30:07.020Z,21.00
2024-05-09T09:32:43.925Z,20.90
2024-05-09T09:35:21.085Z,21.00
2024-05-09T09:37:57.054Z,20.90
2024-05-09T09:40:46.941Z,20.90
2024-05-09T09:43:22.905Z,20.90
2024-05-09T09:46:00.231Z,20.80
2024-05-09T09:48:34.608Z,20.70
2024-05-09T09:51:08.935Z,20.70
2024-05-09T09:53:44.790Z,20.70
2024-05-09T09:56:20.817Z,20.70
2024-05-09T09:58:58.819Z,20.60
2024-05-09T10:01:36.634Z,20.50
2024-05-09T10:04:16.702Z,20.50
2024-05-09T10:06:54.290Z,20.30
2024-05-09T10:09:30.842Z,20.20
2024-05-09T10:12:14.545Z,20.30
2024-05-09T10:14:55.707Z,20.40
2024-05-09T10:17:28.972Z,20.40
2024-05-09T10:20:14.522Z,20.30
2024-05-09T10:22:54.996Z,20.10
2024-05-09T10:25:28.285Z,20.00
2024-05-09T10:28:03.116Z,19.90
2024-05-09T10:30:37.455Z,20.00
2024-05-09T10:33:11.977Z,20.20
2024-05-09T10:35:52.244Z,20.30
2024-05-09T10:38:25.529Z,20.40
2024-05-09T10:41:00.467Z,20.50
2024-05-09T10:43:59.338Z,20.60
2024-05-09T10:46:32.228Z,20.80
2024-05-09T10:49:07.796Z,20.90
2024-05-09T10:51:45.067Z,21.10
2024-05-09T10:54:19.050Z,21.30
2024-05-09T10:56:58.020Z,21.30
2024-05-09T11:00:15.795Z,21.20
2024-05-09T11:05:59.811Z,20.90
2024-05-09T11:08:33.194Z,20.80
2024-05-09T11:11:08.849Z,20.80
2024-05-09T11:13:42.908Z,21.10
2024-05-09T11:16:21.172Z,21.50
2024-05-09T11:18:57.507Z,21.80
2024-05-09T11:21:31.010Z,21.90
2024-05-09T11:24:06.614Z,22.00
2024-05-09T11:26:41.056Z,22.10
2024-05-09T11:29:15.724Z,22.30
2024-05-09T11:31:50.833Z,22.20
2024-05-09T11:34:24.119Z,22.40
2024-05-09T11:36:57.809Z,22.50
2024-05-09T11:39:31.652Z,22.70
2024-05-09T11:42:06.241Z,22.90
2024-05-09T11:44:39.302Z,22.90
2024-05-09T11:47:12.490Z,22.70
2024-05-09T11:49:45.653Z,22.80
2024-05-09T11:52:18.823Z,22.90
2024-05-09T11:54:52.239Z,23.00
2024-05-09T11:57:28.717Z,23.00
2024-05-09T12:00:01.627Z,23.10
2024-05-09T12:02:38.152Z,23.10
2024-05-09T12:05:11.323Z,22.90
2024-05-09T12:07:45.034Z,22.80
2024-05-09T12:10:22.474Z,22.60
2024-05-09T12:12:59.395Z,22.50
2024-05-09T12:15:32.350Z,22.30
2024-05-09T12:18:08.476Z,22.30
2024-05-09T12:20:41.417Z,22.50
2024-05-09T12:23:15.292Z,22.50
2024-05-09T12:25:49.895Z,22.70
2024-05-09T12:28:23.468Z,22.80
2024-05-09T12:30:57.705Z,22.90
2024-05-09T12:33:30.755Z,22.90
2024-05-09T12:36:03.851Z,22.70
2024-05-09T12:38:36.937Z,22.70
2024-05-09T12:41:10.552Z,22.90
2024-05-09T12:43:43.596Z,23.20
2024-05-09T12:46:16.760Z,23.10
2024-05-09T12:48:53.589Z,22.90
2024-05-09T12:51:27.186Z,22.80
2024-05-09T12:54:02.199Z,22.60
2024-05-09T12:56:35.412Z,22.50
2024-05-09T12:59:08.256Z,22.30
2024-05-09T13:01:41.325Z,22.30
2024-05-09T13:04:14.817Z,22.20
2024-05-09T13:06:48.169Z,22.20
2024-05-09T13:09:21.294Z,22.00
2024-05-09T13:11:54.251Z,21.90
2024-05-09T13:14:27.566Z,21.60
2024-05-09T13:17:00.657Z,21.30
2024-05-09T13:19:34.150Z,21.20
2024-05-09T13:22:07.468Z,21.30
2024-05-09T13:24:40.324Z,21.70
2024-05-09T13:27:13.251Z,22.10
2024-05-09T13:29:46.204Z,22.50
2024-05-09T13:32:19.369Z,22.90
2024-05-09T13:34:52.555Z,23.00
2024-05-09T13:37:25.966Z,23.10
2024-05-09T13:39:59.621Z,23.00
2024-05-09T13:42:32.968Z,23.00
2024-05-09T13:45:06.242Z,22.80
2024-05-09T13:47:39.529Z,22.50
2024-05-09T13:50:20.198Z,22.30
2024-05-09T13:53:02.093Z,22.20
2024-05-09T13:55:39.322Z,22.10
2024-05-09T13:58:12.737Z,22.40
2024-05-09T14:00:48.943Z,22.70
2024-05-09T14:03:22.701Z,23.00
2024-05-09T14:05:58.339Z,23.40
2024-05-09T14:08:31.421Z,23.70
2024-05-09T14:11:04.651Z,23.80
2024-05-09T14:13:37.529Z,23.90
2024-05-09T14:16:10.747Z,24.10
2024-05-09T14:18:43.687Z,24.20
2024-05-09T14:21:16.443Z,24.40
2024-05-09T14:23:49.405Z,24.50
2024-05-09T14:26:22.558Z,24.60
2024-05-09T14:28:57.879Z,24.70
2024-05-09T14:31:33.373Z,24.70
2024-05-09T14:34:07.906Z,24.70
2024-05-09T14:36:41.646Z,24.40
2024-05-09T14:39:14.747Z,24.30
2024-05-09T14:41:47.660Z,24.20
2024-05-09T14:44:20.903Z,24.30
2024-05-09T14:46:53.998Z,24.30
2024-05-09T14:49:26.835Z,24.30
2024-05-09T14:51:59.875Z,24.50
2024-05-09T14:54:32.789Z,24.60
2024-05-09T14:57:06.486Z,24.70
2024-05-09T14:59:39.258Z,24.70
2024-05-09T15:02:12.452Z,24.80
2024-05-09T15:04:45.519Z,24.90
2024-05-09T15:07:18.992Z,24.80
2024-05-09T15:09:52.270Z,24.90
2024-05-09T15:12:25.100Z,24.80
2024-05-09T15:14:58.221Z,24.80
2024-05-09T15:17:32.083Z,24.70
2024-05-09T15:20:09.179Z,24.00
2024-05-09T15:22:42.270Z,23.90
2024-05-09T15:25:16.099Z,23.50
2024-05-09T15:27:49.017Z,23.10
2024-05-09T15:30:30.024Z,22.80
2024-05-09T15:33:07.328Z,22.70
2024-05-09T15:35:42.076Z,22.80
2024-05-09T15:38:18.635Z,23.00
2024-05-09T15:40:51.730Z,23.10
2024-05-09T15:43:25.431Z,23.30
2024-05-09T15:45:59.574Z,23.40
2024-05-09T15:48:33.059Z,23.30
2024-05-09T15:51:06.612Z,23.30
2024-05-09T15:53:39.509Z,23.30
2024-05-09T15:56:13.624Z,23.40
2024-05-09T15:58:46.920Z,23.40
2024-05-09T16:01:20.291Z,23.30
2024-05-09T16:03:53.668Z,23.30
2024-05-09T16:06:27.149Z,23.30
2024-05-09T16:09:00.329Z,23.30
2024-05-09T16:11:33.728Z,23.30
2024-05-09T16:14:06.572Z,23.20
2024-05-09T16:16:39.762Z,23.10
2024-05-09T16:19:13.359Z,23.10
2024-05-09T16:21:48.284Z,22.90
2024-05-09T16:24:21.212Z,22.90
2024-05-09T16:26:55.471Z,22.90
2024-05-09T16:29:29.400Z,22.90
2024-05-09T16:32:02.972Z,22.90
2024-05-09T16:34:37.182Z,22.80
2024-05-09T16:37:12.770Z,22.80
2024-05-09T16:39:46.331Z,22.80
2024-05-09T16:42:19.880Z,22.70
2024-05-09T16:44:53.220Z,22.60
2024-05-09T16:47:26.287Z,22.60
2024-05-09T16:49:59.782Z,22.50
2024-05-09T16:52:33.029Z,22.40
2024-05-09T16:55:06.098Z,22.40
2024-05-09T16:57:39.242Z,22.20
2024-05-09T17:00:18.304Z,22.20
2024-05-09T17:03:00.697Z,22.10
2024-05-09T17:05:34.131Z,22.10
2024-05-09T17:08:08.440Z,22.00
2024-05-09T17:10:41.961Z,21.90
2024-05-09T17:13:17.379Z,21.80
2024-05-09T17:18:24.272Z,21.70
2024-05-09T17:20:58.892Z,21.60
2024-05-09T17:23:34.709Z,21.40
2024-05-09T17:26:08.333Z,21.20
2024-05-09T17:28:41.691Z,21.00
2024-05-09T17:31:15.112Z,20.80
2024-05-09T17:33:49.061Z,20.70
2024-05-09T17:36:22.214Z,20.50
2024-05-09T17:38:55.822Z,20.40
2024-05-09T17:41:28.809Z,20.20
2024-05-09T17:44:04.113Z,20.10
2024-05-09T17:46:38.086Z,20.00
2024-05-09T17:49:10.980Z,19.90
2024-05-09T17:51:56.554Z,19.70
2024-05-09T17:54:54.847Z,19.60
2024-05-09T17:57:28.124Z,19.50
2024-05-09T18:00:01.060Z,19.40
2024-05-09T18:02:36.959Z,19.40
2024-05-09T18:05:11.027Z,19.20
2024-05-09T18:07:44.235Z,19.20
2024-05-09T18:10:25.233Z,19.10
2024-05-09T18:13:03.919Z,19.00
2024-05-09T18:15:38.686Z,18.90
2024-05-09T18:18:13.795Z,18.80
2024-05-09T18:20:46.891Z,18.70
2024-05-09T18:23:20.759Z,18.60
2024-05-09T18:25:55.152Z,18.60
2024-05-09T18:28:29.042Z,18.50
2024-05-09T18:31:02.954Z,18.40
2024-05-09T18:33:36.611Z,18.30
2024-05-09T18:36:10.650Z,18.30
2024-05-09T18:38:45.092Z,18.20
2024-05-09T18:41:21.182Z,18.10
2024-05-09T18:43:55.220Z,18.00
2024-05-09T18:46:28.690Z,17.90
2024-05-09T18:49:02.235Z,17.90
2024-05-09T18:51:35.460Z,17.80
2024-05-09T18:54:08.552Z,17.60
2024-05-09T18:56:42.604Z,17.50
2024-05-09T18:59:16.210Z,17.40
